createdAt,value
2023-03-13T00:00:31.922Z,10.80
2023-03-13T00:01:32.412Z,10.82
2023-03-13T00:02:33.146Z,10.83
2023-03-13T00:03:33.593Z,10.84
2023-03-13T00:04:34.196Z,10.84
2023-03-13T00:05:34.514Z,10.85
2023-03-13T00:06:35.518Z,10.86
2023-03-13T00:07:36.240Z,10.86
2023-03-13T00:07:45.596Z,10.96
2023-03-13T00:08:46.103Z,10.94
2023-03-13T00:09:46.580Z,10.94
2023-03-13T00:10:47.099Z,10.94
2023-03-13T00:11:47.947Z,10.94
2023-03-13T00:12:48.384Z,10.94
2023-03-13T00:13:48.464Z,10.94
2023-03-13T00:14:49.061Z,10.93
2023-03-13T00:15:49.801Z,10.93
2023-03-13T00:16:50.318Z,10.93
2023-03-13T00:17:50.697Z,10.92
2023-03-13T00:18:51.096Z,10.92
2023-03-13T00:19:51.562Z,10.91
2023-03-13T00:20:52.135Z,10.89
2023-03-13T00:21:52.671Z,10.88
2023-03-13T00:22:52.990Z,10.87
2023-03-13T00:23:53.741Z,10.86
2023-03-13T00:24:54.227Z,10.84
2023-03-13T00:25:54.786Z,10.83
2023-03-13T00:26:55.243Z,10.82
2023-03-13T00:27:55.697Z,10.81
2023-03-13T00:28:56.182Z,10.80
2023-03-13T00:29:56.514Z,10.79
2023-03-13T00:30:57.118Z,10.78
2023-03-13T00:31:57.718Z,10.77
2023-03-13T00:32:58.167Z,10.76
2023-03-13T00:33:58.666Z,10.76
2023-03-13T00:34:59.144Z,10.75
2023-03-13T00:35:59.661Z,10.75
2023-03-13T00:37:00.092Z,10.75
2023-03-13T00:38:00.628Z,10.75
2023-03-13T00:39:01.172Z,10.75
2023-03-13T00:40:01.585Z,10.76
2023-03-13T00:40:10.229Z,10.90
2023-03-13T00:41:10.892Z,10.89
2023-03-13T00:42:11.417Z,10.90
2023-03-13T00:43:11.903Z,10.90
2023-03-13T00:44:12.471Z,10.90
2023-03-13T00:45:13.145Z,10.91
2023-03-13T00:46:13.721Z,10.91
2023-03-13T00:47:14.131Z,10.91
2023-03-13T00:48:14.271Z,10.91
2023-03-13T00:49:14.876Z,10.91
2023-03-13T00:50:15.245Z,10.91
2023-03-13T00:51:15.694Z,10.91
2023-03-13T00:52:16.302Z,10.91
2023-03-13T00:53:16.989Z,10.91
2023-03-13T00:54:17.536Z,10.91
2023-03-13T00:55:18.283Z,10.91
2023-03-13T00:56:18.518Z,10.91
2023-03-13T00:57:18.781Z,10.91
2023-03-13T00:58:19.072Z,10.91
2023-03-13T00:59:19.236Z,10.91
2023-03-13T01:00:19.577Z,10.92
2023-03-13T01:01:20.019Z,10.92
2023-03-13T01:02:20.446Z,10.93
2023-03-13T01:03:21.006Z,10.93
2023-03-13T01:04:21.003Z,10.94
2023-03-13T01:05:21.111Z,10.94
2023-03-13T01:06:21.188Z,10.95
2023-03-13T01:07:21.710Z,10.96
2023-03-13T01:08:22.225Z,10.97
2023-03-13T01:09:22.637Z,10.98
2023-03-13T01:10:22.934Z,10.99
2023-03-13T01:11:23.616Z,11.00
2023-03-13T01:12:23.931Z,11.00
2023-03-13T01:12:32.617Z,11.05
2023-03-13T01:13:32.579Z,11.03
2023-03-13T01:14:32.787Z,11.02
2023-03-13T01:15:33.217Z,11.02
2023-03-13T01:16:33.526Z,11.02
2023-03-13T01:17:33.979Z,11.02
2023-03-13T01:18:34.289Z,11.02
2023-03-13T01:19:34.852Z,11.02
2023-03-13T01:20:35.061Z,11.02
2023-03-13T01:21:35.481Z,11.02
2023-03-13T01:22:35.743Z,11.01
2023-03-13T01:23:35.961Z,11.01
2023-03-13T01:24:36.247Z,11.00
2023-03-13T01:25:36.565Z,10.99
2023-03-13T01:26:37.046Z,10.99
2023-03-13T01:27:37.355Z,10.98
2023-03-13T01:28:37.730Z,10.97
2023-03-13T01:29:38.304Z,10.96
2023-03-13T01:30:38.897Z,10.95
2023-03-13T01:31:39.570Z,10.94
2023-03-13T01:32:40.196Z,10.93
2023-03-13T01:33:40.557Z,10.92
2023-03-13T01:34:40.976Z,10.92
2023-03-13T01:35:41.553Z,10.91
2023-03-13T01:36:42.059Z,10.90
2023-03-13T01:37:42.150Z,10.89
2023-03-13T01:38:42.633Z,10.87
2023-03-13T01:39:43.079Z,10.86
2023-03-13T01:40:43.634Z,10.85
2023-03-13T01:41:44.290Z,10.85
2023-03-13T01:42:44.788Z,10.85
2023-03-13T01:43:45.158Z,10.85
2023-03-13T01:44:45.669Z,10.85
2023-03-13T01:44:54.314Z,10.97
2023-03-13T01:45:55.230Z,10.95
2023-03-13T01:46:55.787Z,10.95
2023-03-13T01:47:56.463Z,10.95
2023-03-13T01:48:56.879Z,10.96
2023-03-13T01:49:57.458Z,10.96
2023-03-13T01:50:58.291Z,10.98
2023-03-13T01:51:58.931Z,10.99
2023-03-13T01:52:59.223Z,11.01
2023-03-13T01:53:59.640Z,11.01
2023-03-13T01:55:00.298Z,11.02
2023-03-13T01:56:01.051Z,11.03
2023-03-13T01:57:01.645Z,11.03
2023-03-13T01:58:02.185Z,11.04
2023-03-13T01:59:02.684Z,11.05
2023-03-13T02:00:03.151Z,11.06
2023-03-13T02:01:03.356Z,11.07
2023-03-13T02:02:04.262Z,11.08
2023-03-13T02:03:04.606Z,11.09
2023-03-13T02:04:05.096Z,11.10
2023-03-13T02:05:05.560Z,11.11
2023-03-13T02:06:06.304Z,11.12
2023-03-13T02:07:06.853Z,11.13
2023-03-13T02:08:07.422Z,11.13
2023-03-13T02:09:08.340Z,11.14
2023-03-13T02:10:09.112Z,11.14
2023-03-13T02:11:09.482Z,11.15
2023-03-13T02:12:09.959Z,11.15
2023-03-13T02:13:10.526Z,11.15
2023-03-13T02:14:10.897Z,11.15
2023-03-13T02:15:11.366Z,11.15
2023-03-13T02:16:11.950Z,11.16
2023-03-13T02:17:12.373Z,11.16
2023-03-13T02:17:21.017Z,11.30
2023-03-13T02:18:21.651Z,11.28
2023-03-13T02:19:21.790Z,11.27
2023-03-13T02:20:22.450Z,11.27
2023-03-13T02:21:22.834Z,11.26
2023-03-13T02:22:23.367Z,11.26
2023-03-13T02:23:24.123Z,11.26
2023-03-13T02:24:24.722Z,11.26
2023-03-13T02:25:25.493Z,11.26
2023-03-13T02:26:26.430Z,11.26
2023-03-13T02:27:26.986Z,11.26
2023-03-13T02:28:27.411Z,11.26
2023-03-13T02:29:27.987Z,11.26
2023-03-13T02:30:28.488Z,11.26
2023-03-13T02:31:29.321Z,11.25
2023-03-13T02:32:29.855Z,11.25
2023-03-13T02:33:30.306Z,11.24
2023-03-13T02:34:31.053Z,11.24
2023-03-13T02:35:31.401Z,11.23
2023-03-13T02:36:31.825Z,11.23
2023-03-13T02:37:32.240Z,11.22
